Weather History for KCVN - July, 2013

Change the Weather History Date:

Monday, July 1, 2013

  Actual Average Record
Temperature  
Mean Temperature 70 °F -  
Max Temperature 78 °F 91 °F 108 °F (1917)
Min Temperature 60 °F 63 °F 51 °F (1954)
Cooling Degree Days 5    
Growing Degree Days 20 (Base 50)    
Moisture  
Dew Point 56 °F    
Average Humidity 67    
Maximum Humidity 83    
Minimum Humidity 42    
Precipitation  
Precipitation 0.06 in - - ()
Sea Level Pressure  
Sea Level Pressure 30.26 in    
Wind  
Wind Speed 7 mph (NE)    
Max Wind Speed 26 mph    
Max Gust Speed 37 mph    
Visibility 10 miles    
Events Thunderstorm    
Averages and records for this station are not official NWS values.
T = Trace of Precipitation, MM = Missing Value Source: NWS Daily Summary

Daily Weather History Graph

Daily Weather History Graph

Search for Another Location

Airport or City:

Trip Planner

Search our weather history database for the weather conditions in past years. The results will help you decide how hot, cold, wet, or windy it might be!

Date:

Astronomy

Jul. 01, 2013 Rise Set
Actual Time 5:43 AM MDT 8:08 PM MDT
Civil Twilight 5:14 AM MDT 8:37 PM MDT
Nautical Twilight 4:38 AM MDT 9:13 PM MDT
Astronomical Twilight 3:58 AM MDT 9:53 PM MDT
Moon 1:05 AM MDT (7/1) 2:34 PM MDT (7/1)
Length of Visible Light 15h 23m
Length of Day
14h 24m
Waning Crescent, 35% of the Moon is Illuminated
Jul 1
Waning Crescent
Jul 8
New
Jul 15
First Quarter
Jul 22
Full
Jul 29
Last Quarter

Hourly Weather History & Observations

Time (MDT) Temp. Dew Point Humidity Pressure Visibility Wind Dir Wind Speed Gust Speed Precip Events Conditions
12:15 AM 69.8 °F 55.4 °F 60% 30.26 in 8.0 mi East 3.5 mph - 0.02 in   Overcast
12:35 AM 66.2 °F 55.4 °F 68% 30.25 in 10.0 mi South 5.8 mph - 0.05 in   Mostly Cloudy
12:55 AM 66.2 °F 55.4 °F 68% 30.24 in 10.0 mi ESE 3.5 mph - 0.05 in   Mostly Cloudy
1:15 AM 64.4 °F 55.4 °F 73% 30.24 in 10.0 mi Calm Calm - N/A   Mostly Cloudy
1:35 AM 64.4 °F 57.2 °F 77% 30.24 in 10.0 mi NNE 8.1 mph - N/A   Overcast
1:55 AM 64.4 °F 57.2 °F 77% 30.24 in 10.0 mi NNE 9.2 mph - N/A   Overcast
2:15 AM 62.6 °F 57.2 °F 82% 30.24 in 10.0 mi North 6.9 mph - N/A   Overcast
2:35 AM 62.6 °F 57.2 °F 82% 30.24 in 10.0 mi North 8.1 mph - N/A   Overcast
2:55 AM 62.6 °F 57.2 °F 82% 30.25 in 10.0 mi North 5.8 mph - N/A   Overcast
3:15 AM 64.4 °F 57.2 °F 77% 30.25 in 10.0 mi NNW 8.1 mph - N/A   Overcast
3:35 AM 64.4 °F 57.2 °F 77% 30.25 in 10.0 mi NNW 6.9 mph - N/A   Overcast
3:55 AM 64.4 °F 59.0 °F 83% 30.26 in 10.0 mi North 8.1 mph - N/A   Overcast
4:15 AM 64.4 °F 59.0 °F 83% 30.26 in 10.0 mi NNW 5.8 mph - N/A   Overcast
4:35 AM 64.4 °F 57.2 °F 77% 30.27 in 10.0 mi North 5.8 mph - N/A   Overcast
4:55 AM 64.4 °F 57.2 °F 77% 30.27 in 10.0 mi North 4.6 mph - N/A   Overcast
5:15 AM 64.4 °F 57.2 °F 77% 30.27 in 10.0 mi NNE 8.1 mph - N/A   Overcast
5:35 AM 64.4 °F 57.2 °F 77% 30.28 in 10.0 mi NNE 8.1 mph - N/A   Overcast
5:55 AM 64.4 °F 59.0 °F 83% 30.28 in 10.0 mi NE 5.8 mph - N/A   Overcast
6:15 AM 64.4 °F 59.0 °F 83% 30.28 in 10.0 mi ENE 4.6 mph - N/A   Overcast
6:35 AM 64.4 °F 59.0 °F 83% 30.29 in 10.0 mi NNE 4.6 mph - N/A   Overcast
6:55 AM 64.4 °F 59.0 °F 83% 30.29 in 10.0 mi NNE 6.9 mph - N/A   Overcast
7:15 AM 64.4 °F 59.0 °F 83% 30.29 in 10.0 mi NE 8.1 mph - N/A   Overcast
7:35 AM 64.4 °F 57.2 °F 77% 30.29 in 10.0 mi NE 8.1 mph - N/A   Overcast
7:55 AM 64.4 °F 57.2 °F 77% 30.30 in 9.0 mi ENE 5.8 mph - N/A   Overcast
8:15 AM 64.4 °F 57.2 °F 77% 30.30 in 10.0 mi ENE 5.8 mph - N/A   Overcast
8:35 AM 66.2 °F 59.0 °F 78% 30.30 in 10.0 mi East 5.8 mph - N/A   Overcast
8:55 AM 66.2 °F 55.4 °F 68% 30.30 in 10.0 mi Calm Calm - N/A   Mostly Cloudy
9:15 AM 66.2 °F 57.2 °F 73% 30.29 in 10.0 mi SSE 3.5 mph - N/A   Scattered Clouds
9:35 AM 68.0 °F 55.4 °F 64% 30.29 in 10.0 mi WSW 5.8 mph - N/A   Clear
9:55 AM 68.0 °F 55.4 °F 64% 30.29 in 10.0 mi Calm Calm - N/A   Clear
10:15 AM 69.8 °F 57.2 °F 64% 30.29 in 10.0 mi NNW 4.6 mph - N/A   Clear
10:35 AM 71.6 °F 55.4 °F 57% 30.29 in 10.0 mi NNE 3.5 mph - N/A   Clear
10:55 AM 71.6 °F 57.2 °F 60% 30.28 in 10.0 mi Calm Calm - N/A   Clear
11:15 AM 71.6 °F 57.2 °F 60% 30.28 in 10.0 mi NNE 3.5 mph - N/A   Clear
11:35 AM 71.6 °F 57.2 °F 60% 30.28 in 10.0 mi North 4.6 mph - N/A   Scattered Clouds
11:55 AM 73.4 °F 57.2 °F 57% 30.27 in 10.0 mi NE 5.8 mph - N/A   Partly Cloudy
12:15 PM 73.4 °F 57.2 °F 57% 30.27 in 10.0 mi NNE 3.5 mph - N/A   Mostly Cloudy
12:35 PM 75.2 °F 57.2 °F 53% 30.27 in 10.0 mi NE 8.1 mph - N/A   Mostly Cloudy
12:55 PM 75.2 °F 57.2 °F 53% 30.26 in 10.0 mi East 5.8 mph - N/A   Clear
1:15 PM 77.0 °F 59.0 °F 54% 30.25 in 10.0 mi NE 5.8 mph - N/A   Clear
1:35 PM 77.0 °F 55.4 °F 47% 30.24 in 10.0 mi SE 6.9 mph - N/A   Partly Cloudy
1:55 PM 75.2 °F 57.2 °F 53% 30.24 in 10.0 mi SE 8.1 mph - N/A   Partly Cloudy
2:15 PM 78.8 °F 57.2 °F 47% 30.23 in 10.0 mi SE 11.5 mph - N/A   Partly Cloudy
2:35 PM 78.8 °F 57.2 °F 47% 30.23 in 10.0 mi East 6.9 mph - N/A   Scattered Clouds
2:55 PM 77.0 °F 55.4 °F 47% 30.22 in 10.0 mi SE 13.8 mph 18.4 mph N/A   Mostly Cloudy
3:15 PM 78.8 °F 55.4 °F 44% 30.22 in 10.0 mi ENE 11.5 mph 17.3 mph N/A   Scattered Clouds
3:35 PM 78.8 °F 53.6 °F 42% 30.22 in 10.0 mi East 11.5 mph 18.4 mph N/A   Clear
3:55 PM 78.8 °F 53.6 °F 42% 30.22 in 10.0 mi East 9.2 mph - N/A   Clear
4:15 PM 78.8 °F 55.4 °F 44% 30.21 in 10.0 mi East 10.4 mph - N/A   Clear
4:35 PM 78.8 °F 53.6 °F 42% 30.21 in 10.0 mi NE 6.9 mph - N/A   Partly Cloudy
4:55 PM 75.2 °F 55.4 °F 50% 30.23 in 1.5 mi NE 26.5 mph 35.7 mph N/A Thunderstorm Thunderstorm
5:15 PM 66.2 °F 53.6 °F 64% 30.26 in 6.0 mi NE 20.7 mph 36.8 mph N/A   Overcast
5:35 PM 64.4 °F 55.4 °F 73% 30.25 in 10.0 mi North 11.5 mph - 0.01 in   Overcast
5:55 PM 64.4 °F 57.2 °F 77% 30.24 in 10.0 mi North 12.7 mph - 0.01 in   Mostly Cloudy
6:15 PM 64.4 °F 57.2 °F 77% 30.22 in 10.0 mi NNW 4.6 mph - N/A   Mostly Cloudy
6:35 PM 66.2 °F 57.2 °F 73% 30.23 in 10.0 mi North 9.2 mph - N/A   Mostly Cloudy
6:55 PM 68.0 °F 57.2 °F 68% 30.23 in 10.0 mi North 8.1 mph - N/A   Partly Cloudy
7:15 PM 68.0 °F 57.2 °F 68% 30.24 in 10.0 mi NE 10.4 mph - N/A   Clear
7:35 PM 68.0 °F 57.2 °F 68% 30.24 in 10.0 mi NE 6.9 mph - N/A   Clear
7:55 PM 68.0 °F 57.2 °F 68% 30.24 in 10.0 mi North 4.6 mph - N/A   Clear
8:15 PM 66.2 °F 57.2 °F 73% 30.25 in 10.0 mi North 4.6 mph - N/A   Clear
8:35 PM 66.2 °F 57.2 °F 73% 30.25 in 10.0 mi North 5.8 mph - N/A   Clear
8:55 PM 66.2 °F 57.2 °F 73% 30.26 in 10.0 mi NNE 6.9 mph - N/A   Partly Cloudy
9:15 PM 66.2 °F 57.2 °F 73% 30.27 in 10.0 mi NNE 8.1 mph - N/A   Partly Cloudy
9:35 PM 66.2 °F 57.2 °F 73% 30.27 in 10.0 mi NE 12.7 mph - N/A   Clear
9:55 PM 66.2 °F 55.4 °F 68% 30.28 in 10.0 mi ENE 12.7 mph - N/A   Clear
10:15 PM 64.4 °F 51.8 °F 64% 30.28 in 10.0 mi ENE 12.7 mph - N/A   Clear
10:35 PM 64.4 °F 51.8 °F 64% 30.28 in 10.0 mi East 13.8 mph - N/A   Clear
10:55 PM 62.6 °F 50.0 °F 63% 30.29 in 10.0 mi East 12.7 mph - N/A   Clear
11:15 PM 62.6 °F 48.2 °F 59% 30.29 in 10.0 mi East 11.5 mph - N/A   Clear
11:35 PM 62.6 °F 48.2 °F 59% 30.30 in 10.0 mi East 11.5 mph - N/A   Clear
11:55 PM 60.8 °F 48.2 °F 63% 30.30 in 10.0 mi ENE 9.2 mph - N/A   Clear